Time;durP1;ratioP1;P1;durP2;ratioP2;P2;SDS_P1;SDS_P2;PMS_P1;PMS_P2;Temp;Humidity;BMP_temperature;BMP_pressure;BME280_temperature;BME280_humidity;BME280_pressure;Samples;Min_cycle;Max_cycle;Signal;HPM_P1;HPM_P2
2023/07/08 00:00:59;;;;;;;2.75;1.50;;;;;;;16.92;95.27;101121.34;5158091;28;20503;-69
2023/07/08 00:03:30;;;;;;;2.65;1.65;;;;;;;17.31;90.60;101113.97;5177207;28;20042;-70
2023/07/08 00:06:00;;;;;;;3.00;1.58;;;;;;;17.21;91.84;101118.91;5162426;28;20032;-70
2023/07/08 00:08:31;;;;;;;2.00;1.50;;;;;;;17.05;92.68;101115.38;5158658;28;20036;-69
2023/07/08 00:11:01;;;;;;;2.25;1.33;;;;;;;17.09;92.33;101121.31;5161246;28;20022;-70
2023/07/08 00:13:31;;;;;;;2.75;1.40;;;;;;;16.69;95.54;101116.44;5179987;28;20079;-70
2023/07/08 00:16:02;;;;;;;3.00;1.60;;;;;;;16.72;97.56;101115.44;5161793;28;20025;-70
2023/07/08 00:18:32;;;;;;;2.00;1.30;;;;;;;16.77;97.05;101110.75;5162756;28;20053;-70
2023/07/08 00:21:05;;;;;;;2.03;1.27;;;;;;;16.67;97.16;101110.38;5145365;28;20038;-69
2023/07/08 00:23:36;;;;;;;3.97;1.55;;;;;;;16.69;95.33;101111.16;5140307;28;20036;-70
2023/07/08 00:26:20;;;;;;;3.03;1.40;;;;;;;16.43;97.89;101111.66;5156051;28;20381;-71
2023/07/08 00:28:51;;;;;;;3.50;1.60;;;;;;;16.37;99.91;101106.69;5162531;28;20018;-70
2023/07/08 00:31:25;;;;;;;2.92;1.55;;;;;;;16.59;97.78;101111.72;5175327;28;20428;-70
2023/07/08 00:33:56;;;;;;;2.72;1.50;;;;;;;16.69;97.42;101105.03;5161576;28;20037;-70
2023/07/08 00:36:27;;;;;;;3.00;1.67;;;;;;;16.70;97.43;101107.59;5159946;28;20030;-70
2023/07/08 00:38:57;;;;;;;2.53;1.48;;;;;;;16.88;94.20;101115.41;5156729;28;20040;-70
2023/07/08 00:41:41;;;;;;;3.70;1.30;;;;;;;16.80;92.99;101122.03;5175417;28;20017;-70
2023/07/08 00:44:12;;;;;;;2.70;1.50;;;;;;;16.83;95.08;101121.84;5158991;28;20033;-70
2023/07/08 00:46:42;;;;;;;2.13;1.30;;;;;;;16.74;93.53;101122.31;5173950;28;20030;-70
2023/07/08 00:49:12;;;;;;;2.90;1.40;;;;;;;16.68;93.65;101130.56;5157510;28;20261;-70
2023/07/08 00:51:43;;;;;;;3.33;1.52;;;;;;;16.36;95.62;101112.88;5180566;28;20028;-71
2023/07/08 00:54:16;;;;;;;3.40;1.52;;;;;;;16.50;95.22;101117.44;5179461;23;20061;-72
2023/07/08 00:56:59;;;;;;;2.63;1.33;;;;;;;16.42;95.28;101115.19;5178469;28;20025;-72
2023/07/08 00:59:42;;;;;;;3.50;1.40;;;;;;;16.22;98.19;101114.50;5174378;28;20034;-74
2023/07/08 01:02:16;;;;;;;3.00;1.38;;;;;;;16.34;97.86;101119.13;5158135;28;20446;-74
2023/07/08 01:04:49;;;;;;;3.63;1.60;;;;;;;16.16;97.66;101115.63;5185671;28;20040;-74
2023/07/08 01:07:23;;;;;;;2.42;1.45;;;;;;;16.01;98.13;101111.13;5168532;28;20037;-74
2023/07/08 01:10:07;;;;;;;5.65;1.50;;;;;;;16.11;97.44;101116.78;5174845;28;20025;-73
2023/07/08 01:12:44;;;;;;;3.42;1.48;;;;;;;15.97;99.32;101117.47;5191152;28;20021;-73
2023/07/08 01:15:15;;;;;;;1.98;1.35;;;;;;;15.68;100.00;101115.38;5192414;28;20018;-73
2023/07/08 01:17:45;;;;;;;2.55;1.40;;;;;;;15.93;99.42;101115.94;5176836;28;20032;-73
2023/07/08 01:20:16;;;;;;;3.10;1.50;;;;;;;15.79;100.00;101118.38;5192353;28;20029;-72
2023/07/08 01:22:46;;;;;;;3.20;1.65;;;;;;;15.84;97.53;101113.72;5192645;28;20644;-74
2023/07/08 01:25:17;;;;;;;2.47;1.33;;;;;;;15.75;100.00;101101.00;5190127;28;20233;-74
2023/07/08 01:27:52;;;;;;;4.55;1.67;;;;;;;15.87;99.16;101099.56;5192902;28;20107;-73
2023/07/08 01:30:22;;;;;;;5.63;1.35;;;;;;;15.94;100.00;101095.66;5192924;28;20021;-73
2023/07/08 01:32:59;;;;;;;2.22;1.38;;;;;;;15.87;99.24;101100.38;5192486;28;20029;-73
2023/07/08 01:35:29;;;;;;;2.50;1.40;;;;;;;15.74;100.00;101099.25;5195104;28;20485;-74
2023/07/08 01:38:03;;;;;;;4.93;1.67;;;;;;;15.68;100.00;101089.03;5159830;28;20053;-73
2023/07/08 01:40:38;;;;;;;5.60;1.50;;;;;;;15.90;97.81;101097.59;5191194;28;20032;-74
2023/07/08 01:43:10;;;;;;;3.65;1.48;;;;;;;15.52;100.00;101090.69;5160921;28;20053;-74
2023/07/08 01:45:42;;;;;;;3.25;1.67;;;;;;;15.57;100.00;101091.31;5197789;28;20419;-73
2023/07/08 01:48:15;;;;;;;3.85;1.90;;;;;;;15.73;100.00;101086.19;5195433;28;20029;-73
2023/07/08 01:50:48;;;;;;;2.88;1.38;;;;;;;15.78;100.00;101079.75;5193448;28;20076;-73
2023/07/08 01:53:28;;;;;;;4.68;1.40;;;;;;;15.52;99.81;101077.50;5180070;28;20026;-73
2023/07/08 01:55:59;;;;;;;7.70;1.42;;;;;;;15.73;97.95;101079.09;5194584;28;20206;-73
2023/07/08 01:58:30;;;;;;;6.50;1.52;;;;;;;15.54;100.00;101074.81;5186486;28;20045;-73
2023/07/08 02:01:01;;;;;;;5.50;1.50;;;;;;;15.73;97.74;101073.00;5188400;28;20021;-73
2023/07/08 02:03:31;;;;;;;3.50;1.23;;;;;;;15.66;96.90;101064.53;5189675;28;20023;-74
2023/07/08 02:06:03;;;;;;;8.20;1.40;;;;;;;15.36;98.61;101066.00;5177966;28;20022;-73
2023/07/08 02:08:33;;;;;;;5.70;1.40;;;;;;;15.42;97.44;101063.09;5176477;28;20068;-74
2023/07/08 02:11:03;;;;;;;2.50;1.55;;;;;;;15.10;100.00;101068.97;5196909;28;20459;-73
2023/07/08 02:13:33;;;;;;;2.22;1.38;;;;;;;15.34;100.00;101065.22;5193788;28;20025;-73
2023/07/08 02:16:06;;;;;;;2.45;1.40;;;;;;;15.13;97.62;101071.47;5195219;28;20076;-74
2023/07/08 02:18:36;;;;;;;4.38;1.35;;;;;;;15.13;98.34;101068.81;5195678;28;20037;-73
2023/07/08 02:21:07;;;;;;;5.68;1.20;;;;;;;15.11;100.00;101069.81;5194710;28;20495;-71
2023/07/08 02:23:37;;;;;;;5.55;1.48;;;;;;;14.95;100.00;101060.91;5195791;28;20487;-73
2023/07/08 02:26:07;;;;;;;1.98;1.33;;;;;;;15.00;100.00;101061.56;5194018;28;20493;-73
2023/07/08 02:28:38;;;;;;;3.95;1.60;;;;;;;14.85;100.00;101063.09;5197195;28;20112;-73
2023/07/08 02:31:08;;;;;;;4.97;1.38;;;;;;;15.06;100.00;101056.00;5196589;28;20112;-73
2023/07/08 02:33:38;;;;;;;4.90;1.98;;;;;;;15.20;100.00;101064.13;5197236;28;20382;-72
2023/07/08 02:36:09;;;;;;;3.97;1.80;;;;;;;15.42;100.00;101065.72;5196810;28;20331;-73
2023/07/08 02:38:39;;;;;;;3.38;1.65;;;;;;;15.22;100.00;101057.84;5180422;28;20028;-74
2023/07/08 02:41:11;;;;;;;5.05;1.80;;;;;;;15.31;98.60;101056.59;5196509;28;20399;-73
2023/07/08 02:43:41;;;;;;;3.58;1.60;;;;;;;15.26;100.00;101059.44;5196562;28;20099;-73
2023/07/08 02:46:12;;;;;;;4.55;1.65;;;;;;;15.17;99.61;101062.47;5195709;28;20083;-73
2023/07/08 02:48:42;;;;;;;2.20;1.50;;;;;;;15.01;100.00;101064.13;5195898;28;20112;-73
2023/07/08 02:51:12;;;;;;;3.97;1.70;;;;;;;15.24;100.00;101068.31;5193866;28;20395;-73
2023/07/08 02:53:43;;;;;;;2.40;1.50;;;;;;;15.11;100.00;101068.03;5196651;28;20479;-73
2023/07/08 02:56:13;;;;;;;3.13;1.60;;;;;;;14.86;100.00;101064.81;5190091;28;20037;-73
2023/07/08 02:58:43;;;;;;;6.25;1.50;;;;;;;15.11;98.65;101070.69;5178786;28;20479;-73
2023/07/08 03:01:17;;;;;;;4.78;1.50;;;;;;;14.65;100.00;101070.19;5190221;28;20033;-74
2023/07/08 03:03:48;;;;;;;4.65;1.95;;;;;;;14.94;100.00;101075.88;5195708;28;20423;-72
2023/07/08 03:06:19;;;;;;;4.97;1.55;;;;;;;14.86;100.00;101063.97;5194440;28;20032;-73
2023/07/08 03:08:49;;;;;;;3.38;1.52;;;;;;;14.86;100.00;101064.81;5174106;28;20038;-74
2023/07/08 03:11:19;;;;;;;3.28;1.70;;;;;;;15.05;100.00;101056.94;5196453;28;20277;-73
2023/07/08 03:13:49;;;;;;;2.85;1.88;;;;;;;14.92;100.00;101064.56;5174414;28;20027;-73
2023/07/08 03:16:20;;;;;;;5.45;1.50;;;;;;;15.10;100.00;101054.94;5198393;28;20029;-72
2023/07/08 03:18:50;;;;;;;3.28;1.85;;;;;;;15.32;98.33;101059.16;5188384;28;20030;-73
2023/07/08 03:21:21;;;;;;;3.20;1.77;;;;;;;15.21;97.28;101060.56;5197029;28;20022;-72
2023/07/08 03:23:52;;;;;;;3.17;1.58;;;;;;;15.16;98.03;101065.22;5193930;28;20581;-73
2023/07/08 03:26:24;;;;;;;5.28;1.77;;;;;;;15.17;98.85;101061.66;5196908;28;20021;-72
2023/07/08 03:28:54;;;;;;;5.45;2.15;;;;;;;15.13;99.99;101058.28;5193171;28;20029;-73
2023/07/08 03:31:24;;;;;;;3.28;1.60;;;;;;;15.16;99.98;101052.88;5193542;28;20048;-72
2023/07/08 03:33:55;;;;;;;5.13;2.08;;;;;;;15.17;99.04;101054.59;5187773;28;20038;-73
2023/07/08 03:36:26;;;;;;;5.47;2.00;;;;;;;15.26;100.00;101058.56;5196525;28;20032;-73
2023/07/08 03:38:57;;;;;;;4.50;2.00;;;;;;;15.32;100.00;101059.16;5187819;28;20029;-72
2023/07/08 03:41:28;;;;;;;5.43;1.90;;;;;;;15.40;97.66;101049.09;5196488;28;20442;-72
2023/07/08 03:43:58;;;;;;;6.05;2.05;;;;;;;15.54;97.64;101049.31;5190124;28;20257;-72
2023/07/08 03:46:28;;;;;;;5.22;1.90;;;;;;;15.61;96.88;101053.38;5193621;28;20021;-72
2023/07/08 03:48:59;;;;;;;3.60;1.90;;;;;;;15.69;94.92;101051.22;5189757;28;20022;-72
2023/07/08 03:51:33;;;;;;;3.63;1.92;;;;;;;15.93;95.61;101052.66;5183243;28;20030;-73
2023/07/08 03:54:05;;;;;;;2.80;2.08;;;;;;;15.90;94.81;101051.94;5183441;28;20029;-73
2023/07/08 03:56:35;;;;;;;8.73;2.30;;;;;;;15.91;94.62;101053.66;5187741;28;20049;-71
2023/07/08 03:59:05;;;;;;;8.10;2.35;;;;;;;15.95;93.72;101044.66;5194644;28;20068;-73
2023/07/08 04:01:40;;;;;;;4.28;2.03;;;;;;;16.06;93.83;101053.72;5193343;28;20029;-72
2023/07/08 04:04:13;;;;;;;4.75;2.03;;;;;;;16.20;91.18;101055.69;5175945;28;20029;-72
2023/07/08 04:06:45;;;;;;;4.35;2.00;;;;;;;16.35;89.96;101049.66;5177033;28;20224;-73
2023/07/08 04:09:15;;;;;;;6.50;1.98;;;;;;;16.36;90.94;101057.47;5190425;28;20450;-73
2023/07/08 04:11:46;;;;;;;5.78;2.00;;;;;;;16.24;91.98;101054.59;5189400;28;20029;-72
2023/07/08 04:14:16;;;;;;;6.70;2.10;;;;;;;16.44;91.52;101054.44;5195633;28;20059;-72
2023/07/08 04:16:51;;;;;;;6.03;2.40;;;;;;;16.54;91.51;101056.53;5175607;28;20087;-72
2023/07/08 04:19:23;;;;;;;3.28;1.85;;;;;;;16.68;92.07;101055.78;5187204;28;20021;-72
2023/07/08 04:21:53;;;;;;;3.53;2.08;;;;;;;16.61;90.54;101052.66;5174895;28;20316;-72
2023/07/08 04:24:23;;;;;;;3.53;1.80;;;;;;;16.61;93.04;101052.66;5195053;28;20414;-72
2023/07/08 04:26:54;;;;;;;3.83;2.00;;;;;;;16.83;91.64;101050.56;5189834;28;20022;-73
2023/07/08 04:29:24;;;;;;;4.90;2.22;;;;;;;16.78;91.42;101049.97;5190854;28;20112;-73
2023/07/08 04:31:54;;;;;;;4.57;2.03;;;;;;;16.69;94.58;101058.38;5176968;28;20486;-73
2023/07/08 04:34:25;;;;;;;4.07;2.15;;;;;;;16.88;91.76;101065.25;5194146;28;20029;-72
2023/07/08 04:36:55;;;;;;;6.57;2.20;;;;;;;17.08;90.73;101069.44;5190100;28;21279;-71
2023/07/08 04:39:25;;;;;;;5.30;2.10;;;;;;;17.17;91.59;101064.50;5192017;28;20158;-72
2023/07/08 04:41:56;;;;;;;7.10;2.08;;;;;;;17.35;91.37;101068.78;5192393;28;20037;-73
2023/07/08 04:44:27;;;;;;;5.50;2.63;;;;;;;17.72;91.51;101062.31;5194549;28;20022;-73
2023/07/08 04:46:58;;;;;;;4.70;1.80;;;;;;;18.05;87.34;101050.66;5171133;28;20038;-73
2023/07/08 04:49:31;;;;;;;4.18;1.90;;;;;;;19.26;81.40;101056.38;5185112;28;20391;-73
2023/07/08 04:52:02;;;;;;;2.58;1.73;;;;;;;22.40;71.85;101048.22;5185889;28;20033;-73
2023/07/08 04:54:32;;;;;;;3.22;1.50;;;;;;;24.95;64.15;101044.66;5185104;28;20380;-73
2023/07/08 04:57:03;;;;;;;2.95;1.77;;;;;;;24.26;64.84;101056.03;5189333;28;20099;-74
2023/07/08 04:59:34;;;;;;;6.10;1.77;;;;;;;25.98;58.29;101040.56;5192918;28;20487;-73
2023/07/08 05:02:04;;;;;;;4.43;1.75;;;;;;;26.19;60.83;101043.94;5176534;28;20039;-73
2023/07/08 05:04:35;;;;;;;4.60;1.45;;;;;;;26.92;58.00;101047.63;5195487;28;20479;-74
2023/07/08 05:07:05;;;;;;;3.92;1.90;;;;;;;28.75;54.64;101039.81;5188259;28;20025;-74
2023/07/08 05:09:36;;;;;;;3.85;1.55;;;;;;;28.40;55.78;101042.63;5192413;28;20021;-73
2023/07/08 05:12:06;;;;;;;7.32;2.05;;;;;;;26.97;57.88;101045.34;5190852;28;20128;-74
2023/07/08 05:14:37;;;;;;;3.92;1.83;;;;;;;27.14;57.52;101047.28;5194042;28;20036;-74
2023/07/08 05:17:07;;;;;;;5.40;1.58;;;;;;;29.68;54.14;101041.47;5194667;28;20533;-74
2023/07/08 05:19:37;;;;;;;3.03;1.57;;;;;;;30.53;52.12;101046.41;5196549;28;20021;-74
2023/07/08 05:22:08;;;;;;;3.50;1.50;;;;;;;29.50;54.34;101051.53;5198618;28;20338;-74
2023/07/08 05:24:38;;;;;;;4.68;1.60;;;;;;;30.44;53.89;101044.75;5200264;28;20025;-74
2023/07/08 05:27:09;;;;;;;3.47;1.70;;;;;;;28.99;56.26;101042.66;5196112;28;20588;-74
2023/07/08 05:29:39;;;;;;;2.97;1.70;;;;;;;31.26;50.86;101025.34;5196956;28;20503;-73
2023/07/08 05:32:09;;;;;;;2.30;1.40;;;;;;;28.74;56.99;101040.81;5180798;28;20042;-74
2023/07/08 05:34:40;;;;;;;5.35;1.75;;;;;;;31.58;50.55;101027.03;5195717;28;20490;-74
2023/07/08 05:37:11;;;;;;;3.83;1.50;;;;;;;32.16;49.94;101030.00;5193983;28;20021;-73
2023/07/08 05:39:41;;;;;;;2.55;1.42;;;;;;;31.64;50.49;101032.56;5181324;28;20502;-74
2023/07/08 05:42:12;;;;;;;4.03;1.83;;;;;;;27.41;58.68;101044.59;5195594;28;20033;-73
2023/07/08 05:44:42;;;;;;;4.50;1.42;;;;;;;29.69;55.19;101036.91;5174476;28;20080;-73
2023/07/08 05:47:13;;;;;;;4.03;1.67;;;;;;;28.71;57.24;101046.53;5172237;28;20025;-72
2023/07/08 05:49:44;;;;;;;6.72;1.63;;;;;;;28.93;55.95;101040.63;5188643;28;20026;-71
2023/07/08 05:52:14;;;;;;;4.72;1.75;;;;;;;29.27;56.61;101038.78;5197204;28;20064;-73
2023/07/08 05:54:44;;;;;;;4.60;1.70;;;;;;;28.63;57.25;101041.09;5178282;28;20061;-72
2023/07/08 05:57:15;;;;;;;3.42;1.85;;;;;;;28.08;58.61;101045.00;5197801;28;20191;-73
2023/07/08 05:59:45;;;;;;;5.05;2.05;;;;;;;27.48;60.54;101043.00;5199402;28;20044;-72
2023/07/08 06:02:16;;;;;;;8.63;2.55;;;;;;;27.10;61.20;101040.53;5199691;28;20045;-73
2023/07/08 06:04:47;;;;;;;7.72;2.10;;;;;;;27.15;62.33;101032.88;5175296;28;20053;-72
2023/07/08 06:07:17;;;;;;;6.45;1.90;;;;;;;26.89;62.65;101022.91;5173650;28;20599;-73
2023/07/08 06:09:47;;;;;;;4.65;1.98;;;;;;;26.91;62.48;101023.63;5194321;28;20475;-71
2023/07/08 06:12:18;;;;;;;4.65;1.90;;;;;;;26.82;63.24;101025.38;5176520;28;20476;-72
2023/07/08 06:14:48;;;;;;;4.25;2.00;;;;;;;26.72;64.38;101023.69;5193285;28;20025;-71
2023/07/08 06:17:19;;;;;;;3.03;2.30;;;;;;;27.06;63.63;101019.44;5193259;28;20041;-72
2023/07/08 06:19:49;;;;;;;4.05;2.10;;;;;;;27.25;62.62;101020.25;5195021;28;20483;-72
2023/07/08 06:22:19;;;;;;;4.22;1.83;;;;;;;27.32;61.57;101033.91;5196599;28;20040;-73
2023/07/08 06:24:50;;;;;;;4.63;2.00;;;;;;;27.52;61.36;101025.59;5192298;28;20048;-73
2023/07/08 06:27:20;;;;;;;6.53;2.10;;;;;;;27.82;60.82;101022.56;5195292;28;20029;-72
2023/07/08 06:29:50;;;;;;;5.68;1.80;;;;;;;28.12;61.15;101024.84;5172319;28;20022;-72
2023/07/08 06:32:21;;;;;;;4.05;2.10;;;;;;;28.53;59.79;101013.47;5191417;28;20039;-73
2023/07/08 06:34:51;;;;;;;3.88;2.05;;;;;;;28.57;59.36;101019.34;5189403;28;20033;-72
2023/07/08 06:37:21;;;;;;;3.92;2.22;;;;;;;29.27;58.47;101014.53;5197442;28;20026;-73
2023/07/08 06:39:52;;;;;;;4.55;2.03;;;;;;;28.44;59.86;101014.38;5194801;28;20044;-73
2023/07/08 06:42:22;;;;;;;4.68;1.95;;;;;;;29.37;57.17;101015.25;5187617;28;20051;-73
2023/07/08 06:44:53;;;;;;;4.88;1.95;;;;;;;29.69;56.61;101015.34;5189755;28;20167;-73
2023/07/08 06:47:23;;;;;;;3.42;1.77;;;;;;;29.87;56.75;101005.25;5179628;28;20025;-73
2023/07/08 06:49:53;;;;;;;3.05;1.85;;;;;;;30.25;55.32;101007.34;5193338;28;20431;-72
2023/07/08 06:52:24;;;;;;;3.20;1.95;;;;;;;29.91;55.89;101007.44;5197525;28;20033;-73
2023/07/08 06:54:57;;;;;;;4.13;1.73;;;;;;;30.89;54.41;101006.19;5668502;23;20033;-90
2023/07/08 06:58:15;;;;;;;;;;;;;;;;;;;;;
2023/07/08 07:00:48;;;;;;;3.13;2.05;;;;;;;30.79;55.86;101003.88;6250988;23;20102;-92
2023/07/08 07:04:06;;;;;;;5.07;2.15;;;;;;;31.52;53.97;101012.34;6252775;23;20048;-93
2023/07/08 07:11:19;;;;;;;;;;;;;;;;;;;;;
2023/07/08 07:17:27;;;;;;;;;;;;;;;;;;;;;
2023/07/08 07:20:11;;;;;;;3.20;1.63;;;;;;;31.38;55.01;101010.41;6238726;23;20074;-91
2023/07/08 07:26:26;;;;;;;3.53;1.73;;;;;;;32.26;52.92;101012.56;6255814;23;20476;-90
2023/07/08 07:29:08;;;;;;;3.78;1.88;;;;;;;31.86;55.29;101015.53;6225640;23;20454;-91
2023/07/08 07:31:54;;;;;;;;;;;;;;;;;;;;;
2023/07/08 07:34:48;;;;;;;2.25;1.77;;;;;;;33.12;52.11;101016.41;6258389;23;20051;-91
2023/07/08 07:37:58;;;;;;;1.90;1.60;;;;;;;33.51;50.64;101011.50;6202111;23;20017;-91
2023/07/08 07:41:15;;;;;;;3.78;1.63;;;;;;;33.32;52.79;101012.91;6245217;23;20047;-92
2023/07/08 07:54:08;;;;;;;;;;;;;;;;;;;;;
2023/07/08 08:04:53;;;;;;;;;;;;;;;;;;;;;
2023/07/08 08:08:22;;;;;;;;;;;;;;;;;;;;;
2023/07/08 08:33:27;;;;;;;;;;;;;;;;;;;;;
2023/07/08 08:36:46;;;;;;;;;;;;;;;;;;;;;
2023/07/08 08:39:17;;;;;;;3.70;1.73;;;;;;;36.35;44.40;101006.19;5819304;23;20050;-77
2023/07/08 08:41:53;;;;;;;3.45;1.77;;;;;;;37.14;43.48;101012.38;5145694;28;20467;-76
2023/07/08 08:44:34;;;;;;;2.92;1.50;;;;;;;37.26;42.35;101014.19;5151743;28;20032;-76
2023/07/08 08:47:20;;;;;;;2.53;1.50;;;;;;;36.74;43.20;101013.47;5158592;28;20034;-76
2023/07/08 08:50:00;;;;;;;2.40;1.60;;;;;;;36.61;42.45;101022.53;5160864;28;20028;-75
2023/07/08 08:52:31;;;;;;;2.33;1.60;;;;;;;36.86;42.00;101019.97;5164440;28;20042;-75
2023/07/08 08:55:02;;;;;;;3.05;1.60;;;;;;;36.32;41.93;101016.66;5156014;28;20520;-72
2023/07/08 08:57:53;;;;;;;3.45;1.70;;;;;;;35.42;43.66;101012.66;5182790;28;20099;-73
2023/07/08 09:00:29;;;;;;;3.00;1.70;;;;;;;36.08;43.52;101018.06;5167868;28;20465;-72
2023/07/08 09:03:09;;;;;;;3.88;1.80;;;;;;;36.51;43.52;101013.88;5165884;28;20037;-73
2023/07/08 09:05:40;;;;;;;2.10;1.70;;;;;;;36.96;41.81;101009.47;5166007;28;20026;-73
2023/07/08 09:08:17;;;;;;;2.97;1.77;;;;;;;36.57;39.27;101004.94;5164810;28;20043;-72
2023/07/08 09:11:01;;;;;;;3.88;1.65;;;;;;;35.29;41.93;101008.00;5172605;28;20434;-73
2023/07/08 09:13:35;;;;;;;4.75;1.70;;;;;;;36.97;41.21;101006.50;5165352;28;20026;-73
2023/07/08 09:16:39;;;;;;;4.25;1.70;;;;;;;36.68;42.82;101012.44;5169955;28;20054;-72
2023/07/08 09:19:18;;;;;;;3.17;1.70;;;;;;;35.98;43.03;101009.47;5169686;28;20510;-73
2023/07/08 09:22:21;;;;;;;2.28;1.67;;;;;;;36.68;42.26;101006.16;5174874;28;20466;-72
2023/07/08 09:25:14;;;;;;;11.65;2.30;;;;;;;35.62;43.36;101000.81;5180748;28;20538;-73
2023/07/08 09:27:46;;;;;;;3.25;1.52;;;;;;;36.38;44.10;101002.19;5168636;28;20324;-73
2023/07/08 09:30:20;;;;;;;3.13;1.90;;;;;;;35.39;45.23;101000.31;5170920;28;20119;-73
2023/07/08 09:32:51;;;;;;;2.63;1.63;;;;;;;36.41;44.96;100988.97;5166943;28;20589;-73
2023/07/08 09:35:28;;;;;;;3.05;1.58;;;;;;;36.71;42.76;100995.69;5169845;28;20021;-72
2023/07/08 09:38:07;;;;;;;5.50;1.92;;;;;;;36.68;43.85;100997.97;5170385;28;20044;-73
2023/07/08 09:40:37;;;;;;;2.67;1.80;;;;;;;35.73;46.61;100997.50;5174153;28;20032;-73
2023/07/08 09:43:27;;;;;;;2.60;1.73;;;;;;;35.92;43.63;100996.69;5171472;28;20045;-74
2023/07/08 09:45:59;;;;;;;3.25;1.88;;;;;;;36.78;44.70;100992.94;5165287;28;20422;-73
2023/07/08 09:48:35;;;;;;;2.55;1.50;;;;;;;36.18;43.05;101001.34;5170139;28;20129;-74
2023/07/08 09:51:08;;;;;;;3.05;1.70;;;;;;;36.24;45.23;100993.19;5165272;28;20286;-72
2023/07/08 09:53:38;;;;;;;3.22;1.70;;;;;;;36.63;43.75;100995.88;5163727;28;20264;-74
2023/07/08 09:56:09;;;;;;;4.80;1.83;;;;;;;36.40;42.86;100990.03;5149948;28;20041;-73
2023/07/08 09:58:44;;;;;;;3.33;1.60;;;;;;;36.31;44.78;100993.19;5176880;28;20693;-74
2023/07/08 10:01:23;;;;;;;3.63;1.77;;;;;;;35.78;45.06;100989.53;5175680;28;20026;-73
2023/07/08 10:03:59;;;;;;;3.83;1.80;;;;;;;35.42;44.76;100989.00;5174081;28;20442;-73
2023/07/08 10:06:33;;;;;;;4.47;1.65;;;;;;;35.26;45.52;100992.09;5157377;28;20077;-73
2023/07/08 10:09:13;;;;;;;3.50;1.98;;;;;;;35.35;44.09;100998.19;5154516;28;20041;-74
2023/07/08 10:11:50;;;;;;;3.97;1.92;;;;;;;35.36;45.01;100992.56;5161827;28;20029;-73
2023/07/08 10:14:30;;;;;;;2.60;1.80;;;;;;;34.75;44.93;100997.22;5157977;28;20037;-72
2023/07/08 10:17:01;;;;;;;3.50;1.60;;;;;;;34.19;46.49;100996.38;5157221;28;20252;-72
2023/07/08 10:19:31;;;;;;;4.00;1.80;;;;;;;34.40;46.50;100998.22;5159802;28;20034;-73
2023/07/08 10:22:10;;;;;;;4.25;2.08;;;;;;;33.43;46.38;100995.31;5156441;28;20487;-72
2023/07/08 10:25:06;;;;;;;3.10;1.88;;;;;;;33.40;48.37;100993.00;5167089;28;20107;-73
2023/07/08 10:27:49;;;;;;;5.25;1.95;;;;;;;33.21;50.65;100999.00;5164445;28;20498;-73
2023/07/08 10:30:27;;;;;;;3.60;1.73;;;;;;;32.78;49.84;100997.16;5170142;28;20045;-71
2023/07/08 10:33:13;;;;;;;2.80;1.77;;;;;;;32.92;48.57;101004.41;5166800;28;20021;-73
2023/07/08 10:35:58;;;;;;;3.88;1.90;;;;;;;32.86;48.06;100997.06;5175724;28;20041;-72
2023/07/08 10:38:40;;;;;;;3.85;2.13;;;;;;;33.20;49.17;100991.91;5175307;28;20049;-72
2023/07/08 10:41:20;;;;;;;4.80;2.00;;;;;;;32.85;48.48;100999.94;5189776;28;20048;-71
2023/07/08 10:43:56;;;;;;;3.58;1.90;;;;;;;32.67;48.16;100986.75;5168627;28;20053;-72
2023/07/08 10:46:46;;;;;;;4.85;1.80;;;;;;;32.43;49.11;100987.03;5188441;28;20040;-72
2023/07/08 10:49:26;;;;;;;3.65;1.95;;;;;;;32.62;50.25;100985.63;5173540;28;20848;-73
2023/07/08 10:52:28;;;;;;;3.08;2.00;;;;;;;32.41;49.86;100989.03;5171648;28;20029;-73
2023/07/08 10:55:11;;;;;;;3.58;1.88;;;;;;;32.40;49.55;100983.84;5167641;28;20116;-73
2023/07/08 10:57:56;;;;;;;3.40;1.90;;;;;;;32.50;49.07;100987.94;5171207;28;20059;-73
2023/07/08 11:01:00;;;;;;;5.80;2.10;;;;;;;32.20;49.92;100986.22;5168641;28;20044;-71
2023/07/08 11:03:57;;;;;;;3.67;1.92;;;;;;;32.03;49.71;100979.22;5172606;28;20562;-73
2023/07/08 11:06:40;;;;;;;3.17;1.95;;;;;;;31.95;47.77;100981.16;5163017;28;20128;-72
2023/07/08 11:09:15;;;;;;;2.50;1.60;;;;;;;31.44;44.95;100977.28;5168947;28;20451;-72
2023/07/08 11:11:54;;;;;;;3.15;2.00;;;;;;;31.70;47.53;100983.19;5172946;28;20042;-72
2023/07/08 11:14:31;;;;;;;2.92;1.73;;;;;;;31.73;46.75;100976.59;5174622;28;20039;-71
2023/07/08 11:17:23;;;;;;;5.40;1.90;;;;;;;31.80;49.48;100978.41;5185127;28;20033;-72
2023/07/08 11:20:13;;;;;;;2.95;1.80;;;;;;;31.87;47.48;100979.34;5175509;28;20037;-72
2023/07/08 11:23:00;;;;;;;2.28;1.52;;;;;;;31.84;46.80;100977.03;5173704;28;20040;-72
2023/07/08 11:25:31;;;;;;;3.00;1.83;;;;;;;31.79;46.11;100982.13;5169152;28;20209;-73
2023/07/08 11:28:05;;;;;;;4.38;1.90;;;;;;;31.72;46.13;100970.34;5169901;28;20043;-72
2023/07/08 11:30:39;;;;;;;3.65;1.95;;;;;;;31.75;47.27;100964.59;5172204;28;20036;-72
2023/07/08 11:33:12;;;;;;;3.05;1.90;;;;;;;31.76;47.13;100965.41;5174254;28;20033;-72
2023/07/08 11:35:56;;;;;;;4.30;1.95;;;;;;;31.74;45.20;100962.06;5176702;28;20029;-72
2023/07/08 11:38:26;;;;;;;4.72;1.95;;;;;;;31.86;44.27;100956.03;5169138;28;20042;-71
2023/07/08 11:41:01;;;;;;;3.13;1.98;;;;;;;31.70;48.00;100958.88;5171124;28;20017;-72
2023/07/08 11:43:52;;;;;;;4.28;2.10;;;;;;;31.78;48.37;100955.25;5188696;28;20175;-72
2023/07/08 11:46:31;;;;;;;6.53;1.83;;;;;;;31.54;46.12;100950.84;5172108;28;20343;-72
2023/07/08 11:49:05;;;;;;;5.35;2.05;;;;;;;31.18;43.16;100954.28;5172878;28;20056;-73
2023/07/08 11:51:39;;;;;;;4.50;2.00;;;;;;;31.38;44.35;100950.94;5175130;28;20061;-72
2023/07/08 11:54:13;;;;;;;2.83;1.88;;;;;;;31.64;46.14;100950.59;5173286;28;20463;-72
2023/07/08 11:56:57;;;;;;;4.75;2.03;;;;;;;31.52;46.13;100950.19;5174930;28;20088;-73
2023/07/08 11:59:32;;;;;;;3.42;1.65;;;;;;;31.79;45.15;100941.56;5190381;28;20474;-72
2023/07/08 12:02:14;;;;;;;3.75;1.95;;;;;;;31.62;44.48;100939.13;5174059;28;20053;-72
2023/07/08 12:05:14;;;;;;;5.97;2.35;;;;;;;31.57;42.75;100945.06;5174550;28;20132;-73
2023/07/08 12:07:46;;;;;;;4.72;2.30;;;;;;;31.69;47.34;100932.84;5169661;28;20031;-72
2023/07/08 12:10:18;;;;;;;5.22;2.45;;;;;;;31.80;47.41;100932.44;5162126;28;20029;-73
2023/07/08 12:12:48;;;;;;;6.57;2.50;;;;;;;31.51;44.57;100931.44;5172028;28;20029;-71
2023/07/08 12:15:31;;;;;;;3.13;2.10;;;;;;;31.36;43.21;100925.97;5175655;28;20102;-71
2023/07/08 12:18:11;;;;;;;6.40;2.28;;;;;;;31.13;43.02;100938.59;5179435;28;20025;-72
2023/07/08 12:20:46;;;;;;;3.40;2.03;;;;;;;31.59;42.76;100929.53;5154516;28;20033;-73
2023/07/08 12:23:25;;;;;;;3.78;2.05;;;;;;;31.61;46.33;100935.59;5164618;28;20381;-72
2023/07/08 12:25:57;;;;;;;3.20;2.15;;;;;;;31.61;44.99;100921.22;5172679;28;20030;-73
2023/07/08 12:28:27;;;;;;;4.50;2.30;;;;;;;31.62;45.10;100918.34;5165734;28;20029;-72
2023/07/08 12:30:59;;;;;;;4.88;2.33;;;;;;;31.50;43.08;100922.50;5168734;28;20039;-72
2023/07/08 12:33:34;;;;;;;6.25;2.30;;;;;;;31.60;42.01;100912.28;5167313;28;20490;-72
2023/07/08 12:36:05;;;;;;;4.32;2.35;;;;;;;31.64;43.80;100910.91;5168177;28;20134;-73
2023/07/08 12:38:39;;;;;;;4.28;2.40;;;;;;;31.65;46.41;100918.00;5164567;28;20105;-71
2023/07/08 12:41:12;;;;;;;4.32;2.25;;;;;;;31.62;46.42;100921.06;5166790;28;20033;-72
2023/07/08 12:43:44;;;;;;;5.22;2.22;;;;;;;31.55;46.66;100911.13;5166691;28;20870;-73
2023/07/08 12:46:16;;;;;;;4.38;2.33;;;;;;;31.52;48.02;100920.44;5171352;28;20034;-72
2023/07/08 12:48:47;;;;;;;4.88;2.20;;;;;;;31.33;46.31;100915.50;5173755;28;20411;-72
2023/07/08 12:51:20;;;;;;;3.67;2.38;;;;;;;31.29;45.74;100916.91;5173237;28;20049;-72
2023/07/08 12:53:52;;;;;;;5.03;2.22;;;;;;;31.42;46.98;100908.19;5169841;28;20029;-72
2023/07/08 12:56:24;;;;;;;3.20;2.22;;;;;;;31.39;47.31;100914.78;5172425;28;20040;-71
2023/07/08 12:58:57;;;;;;;6.22;2.25;;;;;;;31.56;48.88;100913.66;5172415;28;20077;-72
2023/07/08 13:01:31;;;;;;;4.97;2.30;;;;;;;31.44;47.24;100916.97;5172693;28;20041;-72
2023/07/08 13:04:06;;;;;;;4.10;2.33;;;;;;;31.47;44.60;100917.44;5174568;28;20021;-72
2023/07/08 13:06:39;;;;;;;4.72;2.50;;;;;;;31.26;48.62;100909.16;5169635;28;20037;-73